Time;durP1;ratioP1;P1;durP2;ratioP2;P2;SDS_P1;SDS_P2;PMS_P1;PMS_P2;Temp;Humidity;BMP_temperature;BMP_pressure;BME280_temperature;BME280_humidity;BME280_pressure;Samples;Min_cycle;Max_cycle;Signal;HPM_P1;HPM_P2
2021/06/17 00:00:18;;;;;;;;;;;19.40;76.00;;;;;;6248048;23;19924;-75
2021/06/17 00:02:47;;;;;;;;;;;19.40;76.20;;;;;;6253596;23;20099;-74
2021/06/17 00:05:18;;;;;;;;;;;19.30;77.10;;;;;;6251526;23;19922;-74
2021/06/17 00:07:47;;;;;;;;;;;19.30;76.70;;;;;;6251394;23;19924;-74
2021/06/17 00:10:15;;;;;;;;;;;19.30;77.00;;;;;;6250136;22;19923;-75
2021/06/17 00:12:43;;;;;;;;;;;19.20;77.20;;;;;;6249943;23;19924;-74
2021/06/17 00:15:11;;;;;;;;;;;19.30;77.30;;;;;;6254479;22;20248;-74
2021/06/17 00:17:40;;;;;;;;;;;19.30;77.10;;;;;;6251909;22;19916;-74
2021/06/17 00:20:07;;;;;;;;;;;19.40;77.10;;;;;;6249404;23;20122;-74
2021/06/17 00:22:35;;;;;;;;;;;19.30;77.50;;;;;;6264589;22;20146;-74
2021/06/17 00:25:05;;;;;;;;;;;19.20;77.60;;;;;;6281083;22;19923;-74
2021/06/17 00:27:36;;;;;;;;;;;19.20;77.80;;;;;;6249171;22;19923;-74
2021/06/17 00:30:04;;;;;;;;;;;19.10;77.70;;;;;;6253912;22;19923;-73
2021/06/17 00:32:34;;;;;;;;;;;19.10;77.80;;;;;;6252791;22;20220;-74
2021/06/17 00:35:02;;;;;;;;;;;19.10;78.10;;;;;;6281188;22;20102;-74
2021/06/17 00:37:29;;;;;;;;;;;19.10;78.00;;;;;;6253142;22;20146;-74
2021/06/17 00:39:58;;;;;;;;;;;19.10;77.60;;;;;;6188039;23;19916;-74
2021/06/17 00:42:25;;;;;;;;;;;19.10;77.40;;;;;;6206060;23;19935;-74
2021/06/17 00:44:53;;;;;;;;;;;19.10;77.60;;;;;;6218736;23;19930;-74
2021/06/17 00:47:20;;;;;;;;;;;19.10;77.60;;;;;;6217726;23;19975;-74
2021/06/17 00:49:49;;;;;;;;;;;19.10;77.70;;;;;;6217933;23;19924;-74
2021/06/17 00:52:18;;;;;;;;;;;19.00;78.10;;;;;;6216998;23;20011;-75
2021/06/17 00:54:46;;;;;;;;;;;18.80;77.70;;;;;;6242449;23;19991;-75
2021/06/17 00:57:14;;;;;;;;;;;18.70;78.70;;;;;;6217545;23;19939;-75
2021/06/17 00:59:41;;;;;;;;;;;18.70;78.90;;;;;;6246785;23;20202;-74
2021/06/17 01:02:08;;;;;;;;;;;18.60;78.30;;;;;;6242164;23;19923;-74
2021/06/17 01:04:35;;;;;;;;;;;18.70;79.10;;;;;;6221925;23;19916;-74
2021/06/17 01:07:03;;;;;;;;;;;18.60;79.20;;;;;;6219289;23;19922;-74
2021/06/17 01:09:40;;;;;;;;;;;18.60;79.10;;;;;;6218353;23;19924;-74
2021/06/17 01:12:12;;;;;;;;;;;18.70;78.90;;;;;;6219466;23;19923;-73
2021/06/17 01:14:42;;;;;;;;;;;18.60;79.20;;;;;;6220335;23;19947;-74
2021/06/17 01:17:11;;;;;;;;;;;18.60;79.30;;;;;;6219503;23;19924;-74
2021/06/17 01:19:48;;;;;;;;;;;18.50;79.30;;;;;;6219244;23;19950;-74
2021/06/17 01:22:22;;;;;;;;;;;18.50;79.30;;;;;;6218520;23;20422;-75
2021/06/17 01:25:04;;;;;;;;;;;18.50;79.70;;;;;;6218508;23;19947;-75
2021/06/17 01:27:57;;;;;;;;;;;18.40;80.00;;;;;;6214014;23;19939;-75
2021/06/17 01:30:28;;;;;;;;;;;18.40;80.00;;;;;;6222742;23;19923;-75
2021/06/17 01:32:57;;;;;;;;;;;18.30;80.30;;;;;;6221107;23;19939;-75
2021/06/17 01:35:26;;;;;;;;;;;18.20;80.50;;;;;;6221640;23;19924;-74
2021/06/17 01:37:55;;;;;;;;;;;18.20;80.40;;;;;;6220168;23;19966;-74
2021/06/17 01:40:23;;;;;;;;;;;18.10;80.20;;;;;;6220371;23;20087;-74
2021/06/17 01:42:51;;;;;;;;;;;18.10;80.20;;;;;;6222737;23;19924;-75
2021/06/17 01:45:22;;;;;;;;;;;18.10;80.30;;;;;;6246368;23;20274;-75
2021/06/17 01:47:50;;;;;;;;;;;18.10;80.30;;;;;;6221467;23;19970;-75
2021/06/17 01:50:19;;;;;;;;;;;18.10;80.60;;;;;;6220221;23;20214;-75
2021/06/17 01:52:51;;;;;;;;;;;18.10;80.40;;;;;;6246494;23;19924;-75
2021/06/17 01:55:19;;;;;;;;;;;18.10;80.40;;;;;;6243795;23;19916;-75
2021/06/17 01:57:47;;;;;;;;;;;18.10;80.40;;;;;;6216341;23;19923;-73
2021/06/17 02:00:14;;;;;;;;;;;18.00;80.40;;;;;;6213671;23;19923;-75
2021/06/17 02:02:43;;;;;;;;;;;17.90;81.20;;;;;;6218050;23;20206;-74
2021/06/17 02:05:11;;;;;;;;;;;18.00;80.90;;;;;;6218002;23;19935;-75
2021/06/17 02:07:40;;;;;;;;;;;18.10;80.50;;;;;;6219494;23;20368;-74
2021/06/17 02:10:08;;;;;;;;;;;18.10;80.10;;;;;;6220494;23;19943;-74
2021/06/17 02:12:35;;;;;;;;;;;17.90;80.50;;;;;;6217813;23;19947;-74
2021/06/17 02:15:07;;;;;;;;;;;18.00;80.40;;;;;;6217835;23;20222;-76
2021/06/17 02:17:34;;;;;;;;;;;18.00;80.10;;;;;;6216225;23;19930;-73
2021/06/17 02:20:04;;;;;;;;;;;18.00;80.20;;;;;;6217194;23;20318;-74
2021/06/17 02:22:31;;;;;;;;;;;18.00;80.10;;;;;;6216671;23;20195;-74
2021/06/17 02:24:59;;;;;;;;;;;17.80;80.60;;;;;;6216531;23;19928;-75
2021/06/17 02:27:29;;;;;;;;;;;17.70;80.80;;;;;;6219531;23;19975;-74
2021/06/17 02:29:57;;;;;;;;;;;17.80;80.80;;;;;;6214588;23;20269;-74
2021/06/17 02:32:25;;;;;;;;;;;17.90;80.50;;;;;;6220341;23;20143;-74
2021/06/17 02:34:54;;;;;;;;;;;18.00;80.20;;;;;;6216746;23;20098;-74
2021/06/17 02:37:23;;;;;;;;;;;17.90;80.30;;;;;;6217784;23;19916;-74
2021/06/17 02:39:51;;;;;;;;;;;18.00;80.40;;;;;;6217499;23;19939;-75
2021/06/17 02:42:19;;;;;;;;;;;17.90;80.50;;;;;;6217948;23;19924;-74
2021/06/17 02:44:48;;;;;;;;;;;17.90;80.20;;;;;;6218061;23;20247;-74
2021/06/17 02:47:15;;;;;;;;;;;17.90;80.10;;;;;;6218239;23;19939;-74
2021/06/17 02:49:42;;;;;;;;;;;17.90;80.40;;;;;;6220044;23;20148;-74
2021/06/17 02:52:09;;;;;;;;;;;17.80;80.30;;;;;;6219174;23;19970;-75
2021/06/17 02:54:38;;;;;;;;;;;17.80;80.20;;;;;;6218964;23;20199;-75
2021/06/17 02:57:08;;;;;;;;;;;17.90;80.20;;;;;;6220189;23;19934;-75
2021/06/17 02:59:50;;;;;;;;;;;17.80;80.20;;;;;;6218305;23;19944;-75
2021/06/17 03:02:19;;;;;;;;;;;17.70;80.10;;;;;;6232103;23;20159;-75
2021/06/17 03:04:47;;;;;;;;;;;17.70;80.20;;;;;;6219280;23;19924;-75
2021/06/17 03:07:19;;;;;;;;;;;17.80;79.90;;;;;;6217178;23;19982;-75
2021/06/17 03:09:48;;;;;;;;;;;17.80;79.90;;;;;;6218312;23;19924;-75
2021/06/17 03:12:17;;;;;;;;;;;17.70;80.10;;;;;;6219250;23;19931;-75
2021/06/17 03:14:46;;;;;;;;;;;17.70;80.30;;;;;;6220264;23;19959;-75
2021/06/17 03:17:14;;;;;;;;;;;17.70;80.20;;;;;;6220648;23;19947;-75
2021/06/17 03:19:42;;;;;;;;;;;17.60;80.40;;;;;;6218620;23;20134;-75
2021/06/17 03:22:11;;;;;;;;;;;17.70;80.30;;;;;;6219672;23;19954;-75
2021/06/17 03:24:40;;;;;;;;;;;17.60;80.50;;;;;;6245321;23;19943;-75
2021/06/17 03:27:09;;;;;;;;;;;17.60;80.70;;;;;;6215881;23;19924;-74
2021/06/17 03:29:37;;;;;;;;;;;17.70;80.20;;;;;;6219110;23;20207;-74
2021/06/17 03:32:06;;;;;;;;;;;17.70;80.10;;;;;;6217763;23;19940;-74
2021/06/17 03:34:33;;;;;;;;;;;17.60;80.10;;;;;;6219458;23;19955;-74
2021/06/17 03:37:01;;;;;;;;;;;17.60;80.60;;;;;;6220133;23;20156;-74
2021/06/17 03:39:35;;;;;;;;;;;17.70;80.30;;;;;;6220405;23;19927;-76
2021/06/17 03:42:05;;;;;;;;;;;17.70;79.80;;;;;;6218031;23;19975;-75
2021/06/17 03:44:34;;;;;;;;;;;17.70;79.70;;;;;;6243656;23;20138;-75
2021/06/17 03:47:02;;;;;;;;;;;17.70;79.70;;;;;;6216993;23;20123;-75
2021/06/17 03:49:30;;;;;;;;;;;17.70;79.70;;;;;;6218653;23;19962;-75
2021/06/17 03:51:58;;;;;;;;;;;17.80;79.80;;;;;;6215662;23;19947;-75
2021/06/17 03:54:27;;;;;;;;;;;17.80;79.60;;;;;;6219011;23;19971;-75
2021/06/17 03:56:55;;;;;;;;;;;17.70;79.50;;;;;;6241132;23;19979;-75
2021/06/17 03:59:23;;;;;;;;;;;17.70;79.80;;;;;;6216818;23;19983;-75
2021/06/17 04:01:52;;;;;;;;;;;17.60;80.10;;;;;;6213201;23;19928;-75
2021/06/17 04:04:19;;;;;;;;;;;17.60;80.10;;;;;;6241388;23;20132;-75
2021/06/17 04:06:49;;;;;;;;;;;17.70;80.20;;;;;;6215435;23;19924;-75
2021/06/17 04:09:24;;;;;;;;;;;17.70;80.20;;;;;;6240453;23;20211;-75
2021/06/17 04:11:51;;;;;;;;;;;17.60;80.40;;;;;;6215496;23;19924;-74
2021/06/17 04:14:18;;;;;;;;;;;17.60;80.30;;;;;;6217115;23;19923;-75
2021/06/17 04:16:51;;;;;;;;;;;17.70;80.40;;;;;;6242307;23;19931;-75
2021/06/17 04:19:23;;;;;;;;;;;17.90;80.20;;;;;;6242854;23;19930;-75
2021/06/17 04:21:51;;;;;;;;;;;17.90;79.80;;;;;;6244061;23;19930;-75
2021/06/17 04:24:21;;;;;;;;;;;18.10;80.00;;;;;;6250301;23;19994;-75
2021/06/17 04:26:48;;;;;;;;;;;18.10;79.20;;;;;;6221554;23;19923;-75
2021/06/17 04:29:15;;;;;;;;;;;18.20;79.00;;;;;;6222192;23;19923;-75
2021/06/17 04:31:43;;;;;;;;;;;18.30;78.50;;;;;;6215725;23;19924;-75
2021/06/17 04:34:10;;;;;;;;;;;18.30;78.60;;;;;;6220334;23;20126;-75
2021/06/17 04:36:41;;;;;;;;;;;18.20;79.00;;;;;;6248648;23;19930;-75
2021/06/17 04:39:08;;;;;;;;;;;18.20;78.70;;;;;;6222147;23;19923;-75
2021/06/17 04:41:37;;;;;;;;;;;18.30;78.30;;;;;;6222725;23;19923;-75
2021/06/17 04:44:04;;;;;;;;;;;18.30;78.30;;;;;;6249739;23;19930;-75
2021/06/17 04:46:32;;;;;;;;;;;18.30;78.40;;;;;;6223010;23;19924;-76
2021/06/17 04:48:59;;;;;;;;;;;18.40;78.40;;;;;;6250039;23;20100;-75
2021/06/17 04:51:28;;;;;;;;;;;18.50;78.30;;;;;;6222751;23;20221;-75
2021/06/17 04:53:57;;;;;;;;;;;18.50;78.30;;;;;;6224152;23;19931;-75
2021/06/17 04:56:24;;;;;;;;;;;18.60;78.10;;;;;;6221225;23;19935;-75
2021/06/17 04:58:51;;;;;;;;;;;18.70;77.70;;;;;;6249763;23;19922;-75
2021/06/17 05:01:18;;;;;;;;;;;18.90;77.20;;;;;;6245545;23;19973;-75
2021/06/17 05:03:46;;;;;;;;;;;18.90;77.10;;;;;;6222103;23;19939;-76
2021/06/17 05:06:15;;;;;;;;;;;19.10;76.20;;;;;;6249293;23;19946;-75
2021/06/17 05:11:32;;;;;;;;;;;19.40;75.60;;;;;;6250204;23;19919;-76
2021/06/17 05:13:59;;;;;;;;;;;19.50;75.50;;;;;;6223836;23;19923;-75
2021/06/17 05:16:26;;;;;;;;;;;19.60;75.10;;;;;;6251231;23;19979;-75
2021/06/17 05:18:53;;;;;;;;;;;19.70;74.90;;;;;;6249659;23;19924;-75
2021/06/17 05:21:20;;;;;;;;;;;19.70;75.10;;;;;;6222220;23;19927;-74
2021/06/17 05:23:48;;;;;;;;;;;19.90;75.00;;;;;;6249411;23;19915;-74
2021/06/17 05:26:15;;;;;;;;;;;20.10;74.30;;;;;;6248820;23;20174;-74
2021/06/17 05:28:43;;;;;;;;;;;20.30;73.70;;;;;;6216987;23;19923;-76
2021/06/17 05:31:10;;;;;;;;;;;20.50;73.30;;;;;;6249001;23;19941;-74
2021/06/17 05:33:38;;;;;;;;;;;20.50;73.20;;;;;;6221992;23;19924;-75
2021/06/17 05:36:06;;;;;;;;;;;20.60;72.90;;;;;;6246959;23;19931;-74
2021/06/17 05:38:33;;;;;;;;;;;20.70;72.30;;;;;;6220951;23;20205;-75
2021/06/17 05:41:01;;;;;;;;;;;20.80;70.70;;;;;;6220216;23;19924;-75
2021/06/17 05:43:30;;;;;;;;;;;20.90;71.20;;;;;;6245997;23;20115;-75
2021/06/17 05:46:00;;;;;;;;;;;21.10;71.10;;;;;;6246798;23;19951;-75
2021/06/17 05:48:32;;;;;;;;;;;21.20;69.10;;;;;;6246363;23;19939;-75
2021/06/17 05:51:02;;;;;;;;;;;21.40;69.00;;;;;;6247238;23;19923;-74
2021/06/17 05:53:31;;;;;;;;;;;21.50;68.90;;;;;;6248736;23;20111;-74
2021/06/17 05:55:58;;;;;;;;;;;21.70;68.40;;;;;;6222417;23;19927;-74
2021/06/17 05:58:25;;;;;;;;;;;21.80;67.90;;;;;;6247901;23;19977;-75
2021/06/17 06:00:52;;;;;;;;;;;21.90;67.40;;;;;;6213627;23;20207;-75
2021/06/17 06:03:24;;;;;;;;;;;21.90;67.40;;;;;;6220594;23;19923;-74
2021/06/17 06:05:51;;;;;;;;;;;21.80;67.60;;;;;;6220818;23;20136;-74
2021/06/17 06:08:18;;;;;;;;;;;21.80;67.30;;;;;;6221504;23;19958;-74
2021/06/17 06:10:45;;;;;;;;;;;21.90;67.40;;;;;;6221397;23;19962;-74
2021/06/17 06:13:12;;;;;;;;;;;22.10;66.60;;;;;;6247010;23;20228;-75
2021/06/17 06:15:39;;;;;;;;;;;22.20;66.10;;;;;;6221196;23;20226;-74
2021/06/17 06:18:07;;;;;;;;;;;22.40;65.50;;;;;;6222414;23;20017;-74
2021/06/17 06:20:36;;;;;;;;;;;22.50;64.60;;;;;;6245994;23;19935;-75
2021/06/17 06:23:03;;;;;;;;;;;22.70;64.20;;;;;;6224858;23;20164;-74
2021/06/17 06:25:30;;;;;;;;;;;22.80;63.30;;;;;;6224526;23;19928;-75
2021/06/17 06:27:58;;;;;;;;;;;23.00;62.60;;;;;;6252898;23;19916;-74
2021/06/17 06:30:25;;;;;;;;;;;23.10;62.10;;;;;;6246996;23;20077;-74
2021/06/17 06:32:52;;;;;;;;;;;23.20;62.20;;;;;;6249791;23;19930;-74
2021/06/17 06:35:19;;;;;;;;;;;23.20;62.90;;;;;;6223034;23;20003;-74
2021/06/17 06:37:50;;;;;;;;;;;23.30;61.20;;;;;;6250139;23;19931;-75
2021/06/17 06:40:23;;;;;;;;;;;23.40;59.70;;;;;;6221523;23;20245;-75
2021/06/17 06:42:53;;;;;;;;;;;23.50;58.20;;;;;;6224955;23;19916;-75
2021/06/17 06:45:23;;;;;;;;;;;23.60;57.50;;;;;;6253325;23;19934;-75
2021/06/17 06:47:51;;;;;;;;;;;23.60;56.20;;;;;;6250280;23;19924;-74
2021/06/17 06:50:18;;;;;;;;;;;23.80;56.80;;;;;;6222940;23;19950;-75
2021/06/17 06:52:45;;;;;;;;;;;23.90;56.90;;;;;;6224209;23;19923;-75
2021/06/17 06:55:14;;;;;;;;;;;24.00;55.70;;;;;;6251204;23;20183;-75
2021/06/17 06:57:42;;;;;;;;;;;24.10;55.30;;;;;;6224171;23;19938;-76
2021/06/17 07:00:10;;;;;;;;;;;24.20;54.80;;;;;;6220193;23;19947;-76
2021/06/17 07:02:37;;;;;;;;;;;24.30;54.80;;;;;;6223927;23;19935;-73
2021/06/17 07:05:05;;;;;;;;;;;24.40;54.60;;;;;;6223110;23;19923;-74
2021/06/17 07:07:32;;;;;;;;;;;24.50;55.20;;;;;;6249754;23;19916;-74
2021/06/17 07:09:59;;;;;;;;;;;24.60;53.10;;;;;;6223098;23;19916;-73
2021/06/17 07:12:28;;;;;;;;;;;24.60;54.10;;;;;;6250065;23;19923;-74
2021/06/17 07:14:57;;;;;;;;;;;24.70;54.60;;;;;;6222301;23;19916;-75
2021/06/17 07:17:24;;;;;;;;;;;24.80;53.70;;;;;;6225099;23;19931;-75
2021/06/17 07:19:51;;;;;;;;;;;24.90;53.60;;;;;;6224136;23;19966;-74
2021/06/17 07:22:18;;;;;;;;;;;25.00;53.10;;;;;;6217970;23;20265;-74
2021/06/17 07:24:48;;;;;;;;;;;25.10;52.80;;;;;;6218992;23;20149;-75
2021/06/17 07:27:15;;;;;;;;;;;25.20;52.90;;;;;;6217563;23;19980;-75
2021/06/17 07:29:44;;;;;;;;;;;25.30;52.30;;;;;;6218142;23;19924;-75
2021/06/17 07:32:11;;;;;;;;;;;25.30;53.20;;;;;;6213529;23;19955;-75
2021/06/17 07:34:39;;;;;;;;;;;25.50;52.20;;;;;;6217437;23;20244;-75
2021/06/17 07:37:06;;;;;;;;;;;25.50;51.90;;;;;;6217015;23;20231;-75
2021/06/17 07:39:33;;;;;;;;;;;25.60;51.70;;;;;;6214728;23;19955;-75
2021/06/17 07:42:01;;;;;;;;;;;25.60;51.30;;;;;;6216718;23;19924;-75
2021/06/17 07:44:33;;;;;;;;;;;25.80;51.70;;;;;;6215486;23;19998;-75
2021/06/17 07:47:01;;;;;;;;;;;25.80;52.20;;;;;;6217163;23;19916;-75
2021/06/17 07:49:30;;;;;;;;;;;26.00;51.50;;;;;;6215964;23;20012;-75
2021/06/17 07:51:58;;;;;;;;;;;26.10;50.80;;;;;;6218351;23;19931;-74
2021/06/17 07:54:28;;;;;;;;;;;26.20;49.70;;;;;;6218608;23;19930;-75
2021/06/17 07:56:56;;;;;;;;;;;26.20;50.30;;;;;;6221290;23;20118;-75
2021/06/17 07:59:24;;;;;;;;;;;26.30;49.80;;;;;;6216301;23;19916;-75
2021/06/17 08:01:51;;;;;;;;;;;26.30;49.60;;;;;;6211371;23;19964;-75
2021/06/17 08:04:20;;;;;;;;;;;26.40;48.90;;;;;;6204208;23;19928;-75
2021/06/17 08:06:47;;;;;;;;;;;26.50;49.50;;;;;;6213067;23;20198;-74
2021/06/17 08:09:19;;;;;;;;;;;26.50;49.70;;;;;;6212774;23;19924;-75
2021/06/17 08:11:46;;;;;;;;;;;26.60;49.00;;;;;;6216115;23;19936;-74
2021/06/17 08:14:16;;;;;;;;;;;26.60;49.20;;;;;;6218029;23;20203;-75
2021/06/17 08:16:46;;;;;;;;;;;26.70;49.00;;;;;;6219630;23;19924;-74
2021/06/17 08:19:14;;;;;;;;;;;26.70;48.70;;;;;;6219881;23;19939;-74
2021/06/17 08:21:47;;;;;;;;;;;26.90;48.40;;;;;;6217331;23;19924;-75
2021/06/17 08:24:14;;;;;;;;;;;27.00;48.00;;;;;;6187913;23;19916;-75
2021/06/17 08:26:41;;;;;;;;;;;27.10;48.20;;;;;;6188549;23;19916;-75
2021/06/17 08:29:09;;;;;;;;;;;27.20;48.40;;;;;;6188255;23;19944;-74
2021/06/17 08:31:38;;;;;;;;;;;27.20;48.80;;;;;;6188286;23;20131;-75
2021/06/17 08:34:05;;;;;;;;;;;27.30;48.40;;;;;;6190982;23;19924;-75
2021/06/17 08:36:32;;;;;;;;;;;27.30;47.90;;;;;;6189876;23;19963;-75
2021/06/17 08:39:01;;;;;;;;;;;27.50;47.40;;;;;;6189646;23;20111;-74
2021/06/17 08:41:28;;;;;;;;;;;27.50;47.20;;;;;;6190736;23;19916;-75
2021/06/17 08:43:55;;;;;;;;;;;27.60;46.20;;;;;;6187835;23;19924;-74
2021/06/17 08:46:23;;;;;;;;;;;27.80;45.80;;;;;;6188563;23;19931;-74
2021/06/17 08:48:51;;;;;;;;;;;27.90;46.60;;;;;;6183233;23;19948;-74
2021/06/17 08:51:18;;;;;;;;;;;28.00;46.10;;;;;;6188007;23;19924;-74
2021/06/17 08:53:51;;;;;;;;;;;28.10;44.90;;;;;;6186572;23;20223;-75
2021/06/17 08:56:20;;;;;;;;;;;28.10;46.50;;;;;;6187448;23;19924;-74
2021/06/17 08:58:48;;;;;;;;;;;28.10;44.10;;;;;;6185399;23;20023;-74
2021/06/17 09:01:15;;;;;;;;;;;28.10;44.40;;;;;;6180679;23;19932;-74
2021/06/17 09:03:43;;;;;;;;;;;28.20;43.30;;;;;;6188280;23;19931;-74
2021/06/17 09:06:13;;;;;;;;;;;28.30;45.10;;;;;;6188447;23;20103;-74
2021/06/17 09:08:41;;;;;;;;;;;28.40;43.20;;;;;;6187473;23;19944;-74
2021/06/17 09:11:19;;;;;;;;;;;28.50;43.00;;;;;;6184082;23;19939;-74
2021/06/17 09:13:47;;;;;;;;;;;28.50;42.50;;;;;;6184683;23;19924;-75
2021/06/17 09:16:23;;;;;;;;;;;28.50;43.90;;;;;;6184192;23;19984;-74
2021/06/17 09:18:50;;;;;;;;;;;28.60;44.30;;;;;;6186698;23;19924;-74
2021/06/17 09:21:18;;;;;;;;;;;28.70;43.30;;;;;;6186263;23;19930;-75
2021/06/17 09:23:46;;;;;;;;;;;28.80;41.10;;;;;;6211945;23;20248;-74
2021/06/17 09:26:17;;;;;;;;;;;28.90;42.70;;;;;;6218308;23;20134;-74
2021/06/17 09:28:45;;;;;;;;;;;29.00;43.80;;;;;;6217312;23;20143;-74
2021/06/17 09:31:15;;;;;;;;;;;29.00;43.80;;;;;;6218455;23;19987;-74
2021/06/17 09:33:43;;;;;;;;;;;29.10;43.40;;;;;;6216003;23;19916;-75
2021/06/17 09:36:10;;;;;;;;;;;29.10;41.30;;;;;;6215186;23;19924;-74
2021/06/17 09:38:43;;;;;;;;;;;29.20;38.70;;;;;;6215862;23;20002;-74
2021/06/17 09:41:11;;;;;;;;;;;29.30;40.10;;;;;;6215529;23;19924;-74
2021/06/17 09:43:44;;;;;;;;;;;29.50;38.60;;;;;;6238194;23;19943;-74
2021/06/17 09:46:12;;;;;;;;;;;29.60;39.40;;;;;;6206308;23;19950;-74
2021/06/17 09:48:43;;;;;;;;;;;29.60;37.70;;;;;;6218041;23;20140;-75
2021/06/17 09:51:26;;;;;;;;;;;29.70;39.90;;;;;;6218686;23;19938;-74
2021/06/17 09:53:55;;;;;;;;;;;29.90;39.30;;;;;;6213933;23;19959;-75
2021/06/17 09:56:32;;;;;;;;;;;29.90;39.50;;;;;;6219750;23;20249;-74
2021/06/17 09:58:59;;;;;;;;;;;30.00;40.50;;;;;;6218966;23;19946;-75
2021/06/17 10:01:36;;;;;;;;;;;30.10;39.20;;;;;;6210647;23;19930;-74
2021/06/17 10:04:07;;;;;;;;;;;30.40;37.40;;;;;;6218020;23;19994;-74
2021/06/17 10:06:37;;;;;;;;;;;30.60;38.50;;;;;;6221758;23;19963;-74
2021/06/17 10:09:08;;;;;;;;;;;30.90;38.00;;;;;;6220269;23;19989;-75
2021/06/17 10:11:36;;;;;;;;;;;31.00;36.60;;;;;;6218819;23;19924;-76
2021/06/17 10:14:03;;;;;;;;;;;31.30;37.80;;;;;;6220074;23;20239;-74
2021/06/17 10:16:32;;;;;;;;;;;31.40;35.40;;;;;;6220077;23;20147;-73
2021/06/17 10:18:59;;;;;;;;;;;31.60;35.80;;;;;;6217758;23;19924;-74
2021/06/17 10:21:28;;;;;;;;;;;32.00;34.40;;;;;;6240583;23;20154;-73
2021/06/17 10:23:56;;;;;;;;;;;32.20;34.50;;;;;;6245830;23;19922;-75
2021/06/17 10:26:30;;;;;;;;;;;32.70;34.80;;;;;;6223391;23;20292;-74
2021/06/17 10:28:58;;;;;;;;;;;32.60;30.30;;;;;;6221875;23;19959;-74
2021/06/17 10:31:49;;;;;;;;;;;33.00;29.00;;;;;;6224944;23;20144;-73
2021/06/17 10:34:38;;;;;;;;;;;33.30;29.40;;;;;;6248108;23;19924;-73
2021/06/17 10:37:08;;;;;;;;;;;33.80;29.00;;;;;;6221862;23;19939;-73
2021/06/17 10:39:36;;;;;;;;;;;34.30;27.10;;;;;;6223093;23;19927;-73
2021/06/17 10:42:13;;;;;;;;;;;35.10;27.00;;;;;;6220075;23;20218;-73
2021/06/17 11:23:02;;;;;;;3.28;1.73;;;39.00;20.70;;;;;;6008846;22;7191913;-76
2021/06/17 11:25:40;;;;;;;2.90;1.83;;;40.50;20.50;;;;;;6318269;22;20027;-76
2021/06/17 11:28:15;;;;;;;4.07;1.80;;;39.80;21.00;;;;;;6318877;22;20011;-77
2021/06/17 11:31:05;;;;;;;3.33;1.98;;;40.50;20.20;;;;;;6320739;22;20324;-77
2021/06/17 11:33:47;;;;;;;3.10;1.58;;;41.50;20.60;;;;;;6321518;22;20015;-76
2021/06/17 11:36:21;;;;;;;6.68;1.65;;;41.90;17.60;;;;;;6288414;22;20111;-78
2021/06/17 11:39:02;;;;;;;2.88;1.35;;;40.50;18.60;;;;;;6322071;22;20026;-77
2021/06/17 11:41:33;;;;;;;4.43;1.80;;;39.50;18.10;;;;;;6293451;22;20090;-77
2021/06/17 11:44:04;;;;;;;3.08;1.80;;;39.50;19.00;;;;;;6320946;22;20335;-78
2021/06/17 11:46:35;;;;;;;3.30;1.50;;;41.30;17.90;;;;;;6322899;22;20023;-78
2021/06/17 11:49:07;;;;;;;4.10;1.50;;;41.20;16.80;;;;;;6321911;22;20065;-76
2021/06/17 11:51:42;;;;;;;3.13;1.88;;;40.30;17.30;;;;;;6318487;22;20490;-77
2021/06/17 11:54:20;;;;;;;2.50;1.30;;;41.40;17.10;;;;;;6316691;22;20023;-79
2021/06/17 11:56:48;;;;;;;;;;;42.00;17.20;;;;;;6287455;22;20398;-78
2021/06/17 11:59:19;;;;;;;2.70;1.60;;;42.40;16.50;;;;;;6291914;22;19983;-77
2021/06/17 12:02:07;;;;;;;3.45;1.63;;;42.80;16.10;;;;;;6283726;22;20028;-76
2021/06/17 12:04:45;;;;;;;3.33;1.60;;;42.10;16.30;;;;;;6263847;22;20027;-76
2021/06/17 12:07:15;;;;;;;2.20;1.67;;;42.90;16.60;;;;;;6287379;22;20016;-76
2021/06/17 12:09:45;;;;;;;2.63;1.83;;;42.90;16.50;;;;;;6286736;22;20412;-76
2021/06/17 12:12:17;;;;;;;2.15;1.50;;;42.30;16.60;;;;;;6282081;22;20125;-76
2021/06/17 12:14:45;;;;;;;3.38;1.50;;;42.40;17.70;;;;;;6283463;22;20322;-76
2021/06/17 12:17:13;;;;;;;3.05;2.20;;;43.70;16.00;;;;;;6284061;22;20422;-78
2021/06/17 12:20:25;;;;;;;5.00;2.13;;;43.00;17.10;;;;;;6255190;22;20019;-75
2021/06/17 12:23:09;;;;;;;1.70;1.50;;;42.90;16.70;;;;;;6272293;22;20044;-73
2021/06/17 12:25:39;;;;;;;4.80;2.08;;;43.60;16.90;;;;;;6278625;22;20015;-73
2021/06/17 12:28:09;;;;;;;3.20;1.98;;;42.20;17.70;;;;;;6282131;22;20041;-74
2021/06/17 12:30:40;;;;;;;3.13;1.98;;;42.20;18.70;;;;;;6280206;22;20075;-73
2021/06/17 12:33:16;;;;;;;4.15;1.98;;;42.60;18.10;;;;;;6279661;22;20023;-74
2021/06/17 12:35:50;;;;;;;5.47;1.92;;;42.60;18.40;;;;;;6280852;22;20023;-73
2021/06/17 12:38:33;;;;;;;3.83;2.17;;;42.70;17.50;;;;;;6280800;22;20353;-74
2021/06/17 12:41:13;;;;;;;3.42;2.30;;;43.30;17.30;;;;;;6281686;22;20086;-74
2021/06/17 12:43:44;;;;;;;2.80;1.80;;;44.60;16.20;;;;;;6283571;22;20016;-75
2021/06/17 12:46:12;;;;;;;3.40;2.17;;;44.20;17.20;;;;;;6280349;22;20289;-73
2021/06/17 12:49:12;;;;;;;2.63;1.75;;;45.20;16.50;;;;;;6282906;22;20063;-74
2021/06/17 12:52:04;;;;;;;4.15;1.70;;;44.50;16.80;;;;;;6280927;22;20077;-73
2021/06/17 12:54:35;;;;;;;4.70;2.17;;;45.00;16.50;;;;;;6282719;22;20245;-75
2021/06/17 12:57:05;;;;;;;3.50;2.00;;;46.30;15.10;;;;;;6283257;22;20023;-75
2021/06/17 12:59:47;;;;;;;6.05;1.98;;;45.30;15.90;;;;;;6275256;22;20058;-74
2021/06/17 13:02:18;;;;;;;3.92;1.88;;;44.20;16.40;;;;;;6272393;22;20028;-74
2021/06/17 13:05:01;;;;;;;6.88;2.13;;;44.50;16.40;;;;;;6280627;22;20302;-75
2021/06/17 13:07:32;;;;;;;3.33;1.80;;;44.70;16.20;;;;;;6282394;22;20337;-76
2021/06/17 13:10:16;;;;;;;3.38;1.90;;;45.40;15.60;;;;;;6282411;22;20239;-76
2021/06/17 13:12:47;;;;;;;4.07;1.98;;;45.90;15.20;;;;;;6281133;22;20020;-75
2021/06/17 13:15:20;;;;;;;4.50;2.13;;;47.00;14.90;;;;;;6279904;22;20075;-73
2021/06/17 13:17:50;;;;;;;3.47;2.28;;;46.00;15.10;;;;;;6281885;22;20075;-75
2021/06/17 13:20:18;;;;;;;4.07;1.98;;;46.80;14.50;;;;;;6281273;22;20024;-75
2021/06/17 13:22:56;;;;;;;2.20;1.77;;;47.80;15.10;;;;;;6281728;22;20023;-76
2021/06/17 13:25:26;;;;;;;3.10;1.73;;;48.20;14.80;;;;;;6252809;22;20023;-75
2021/06/17 13:27:55;;;;;;;3.38;2.08;;;46.40;15.00;;;;;;6281355;22;20065;-75
2021/06/17 13:30:30;;;;;;;2.40;1.80;;;44.50;16.20;;;;;;6283018;22;20069;-75
2021/06/17 13:33:04;;;;;;;3.22;1.90;;;44.50;16.50;;;;;;6281753;22;20046;-74
2021/06/17 13:35:32;;;;;;;5.88;2.08;;;45.70;16.60;;;;;;6253767;22;20026;-74
2021/06/17 13:38:01;;;;;;;3.90;2.25;;;47.30;15.70;;;;;;6280260;22;20011;-74
2021/06/17 13:40:29;;;;;;;3.70;2.10;;;45.40;16.40;;;;;;6278862;22;20034;-74
2021/06/17 13:43:00;;;;;;;6.82;2.20;;;46.60;15.80;;;;;;6281065;22;20309;-74
2021/06/17 13:45:33;;;;;;;5.40;2.22;;;47.40;14.50;;;;;;6281303;22;20031;-74
2021/06/17 13:48:03;;;;;;;7.55;2.17;;;46.90;14.60;;;;;;6282508;22;20020;-74
2021/06/17 13:50:32;;;;;;;;;;;48.40;14.00;;;;;;6254572;22;20089;-74
2021/06/17 13:52:59;;;;;;;3.22;2.08;;;49.00;14.20;;;;;;6282420;22;19983;-73
2021/06/17 13:55:29;;;;;;;4.15;2.25;;;49.20;14.60;;;;;;6282744;22;20016;-73
2021/06/17 13:58:00;;;;;;;3.00;1.92;;;47.70;13.90;;;;;;6281872;22;20020;-74
2021/06/17 14:00:30;;;;;;;3.50;1.98;;;47.80;15.50;;;;;;6277837;22;20222;-73
2021/06/17 14:03:00;;;;;;;3.97;2.30;;;48.60;14.00;;;;;;6281313;22;20024;-74
2021/06/17 14:05:30;;;;;;;4.63;2.17;;;48.30;15.00;;;;;;6282322;22;20180;-73
2021/06/17 14:08:01;;;;;;;4.32;2.03;;;47.90;15.10;;;;;;6281460;22;20043;-76
2021/06/17 14:10:31;;;;;;;2.97;2.03;;;47.00;15.10;;;;;;6255339;22;20035;-76
2021/06/17 14:13:02;;;;;;;4.88;2.20;;;47.00;15.60;;;;;;6281120;22;20024;-76
2021/06/17 14:15:33;;;;;;;3.45;1.75;;;46.00;15.40;;;;;;6255379;22;20020;-74
2021/06/17 14:18:01;;;;;;;7.07;2.45;;;46.80;15.90;;;;;;6279888;22;20058;-76
2021/06/17 14:20:31;;;;;;;5.40;1.80;;;47.80;14.30;;;;;;6281706;22;20027;-74
2021/06/17 14:22:59;;;;;;;4.00;2.03;;;47.80;14.90;;;;;;6281740;22;20023;-76
2021/06/17 14:25:29;;;;;;;5.50;2.35;;;49.20;14.60;;;;;;6282619;22;20015;-75
2021/06/17 14:27:56;;;;;;;3.95;2.33;;;49.50;13.90;;;;;;6282017;22;20016;-75
2021/06/17 14:30:25;;;;;;;;;;;50.00;13.20;;;;;;6255983;22;20314;-75
2021/06/17 14:32:52;;;;;;;3.28;1.90;;;47.90;14.20;;;;;;6281852;22;19930;-75
2021/06/17 14:35:23;;;;;;;3.58;2.28;;;47.90;15.20;;;;;;6283524;22;20023;-75
2021/06/17 14:37:50;;;;;;;6.65;2.25;;;48.40;14.20;;;;;;6281212;22;20027;-75
2021/06/17 14:40:18;;;;;;;2.20;1.67;;;48.90;14.50;;;;;;6282656;22;20337;-75
2021/06/17 14:42:46;;;;;;;5.40;2.08;;;49.90;14.40;;;;;;6283122;22;20062;-75
2021/06/17 14:45:14;;;;;;;6.50;2.25;;;50.10;14.40;;;;;;6282147;22;20027;-72
2021/06/17 14:47:42;;;;;;;3.50;2.22;;;47.50;15.10;;;;;;6279818;22;20031;-76
2021/06/17 14:50:11;;;;;;;6.63;2.15;;;46.40;16.10;;;;;;6281648;22;20019;-73